Terra, Utah
Current Conditions -  °F | °C
As of 10:58 PM on Monday 20 Oct 2014 (Local Time) from KU16 Reporting Station
Clear Clear  
Wind Chill: 64°   Ceiling: Unl
Heat Index: 64°   Visibility: 10mi
Dew Point: 36°   Wind: 14mph
Humidity: 35%   Direction: 130°SE
Pressure: 29.84"   Gusts: NA
Location:  40.2589°N, 113.049°W
Report Text: KU16 210458Z AUTO 13012KT 10SM CLR 18/02 A2984 RMK AO2 SLP734 T01780022 $
Loading
Personal Weather Stations






























Interactive Weather Map
Tropical Storm Tracking
New forecast layout! Learn more

10-Day Weather Forecast

Advertisements
Track Severe Weather on mobile